sensor_id;sensor_type;location;lat;lon;timestamp;P1;durP1;ratioP1;P2;durP2;ratioP2
18568;SDS011;14780;48.316;-1.050;2023-01-30T00:00:10;4.60;;;3.30;;
18568;SDS011;14780;48.316;-1.050;2023-01-30T00:02:56;5.07;;;3.38;;
18568;SDS011;14780;48.316;-1.050;2023-01-30T00:05:40;4.32;;;3.25;;
18568;SDS011;14780;48.316;-1.050;2023-01-30T00:08:25;4.15;;;3.33;;
18568;SDS011;14780;48.316;-1.050;2023-01-30T00:11:10;4.07;;;3.00;;
18568;SDS011;14780;48.316;-1.050;2023-01-30T00:13:56;4.30;;;3.15;;
18568;SDS011;14780;48.316;-1.050;2023-01-30T00:16:42;4.78;;;3.15;;
18568;SDS011;14780;48.316;-1.050;2023-01-30T00:19:27;4.45;;;2.97;;
18568;SDS011;14780;48.316;-1.050;2023-01-30T00:22:12;5.10;;;3.40;;
18568;SDS011;14780;48.316;-1.050;2023-01-30T00:24:57;4.22;;;3.08;;
18568;SDS011;14780;48.316;-1.050;2023-01-30T00:27:42;4.32;;;3.15;;
18568;SDS011;14780;48.316;-1.050;2023-01-30T00:30:26;4.57;;;3.10;;
18568;SDS011;14780;48.316;-1.050;2023-01-30T00:33:12;4.70;;;3.40;;
18568;SDS011;14780;48.316;-1.050;2023-01-30T00:35:56;4.57;;;2.95;;
18568;SDS011;14780;48.316;-1.050;2023-01-30T00:38:43;4.43;;;3.20;;
18568;SDS011;14780;48.316;-1.050;2023-01-30T00:41:28;4.00;;;3.25;;
18568;SDS011;14780;48.316;-1.050;2023-01-30T00:44:33;6.55;;;3.17;;
18568;SDS011;14780;48.316;-1.050;2023-01-30T00:47:36;5.32;;;3.40;;
18568;SDS011;14780;48.316;-1.050;2023-01-30T00:50:21;3.70;;;2.90;;
18568;SDS011;14780;48.316;-1.050;2023-01-30T00:53:06;4.60;;;3.20;;
18568;SDS011;14780;48.316;-1.050;2023-01-30T00:55:52;4.28;;;2.83;;
18568;SDS011;14780;48.316;-1.050;2023-01-30T00:58:38;3.60;;;2.97;;
18568;SDS011;14780;48.316;-1.050;2023-01-30T01:01:22;4.22;;;3.10;;
18568;SDS011;14780;48.316;-1.050;2023-01-30T01:04:07;4.47;;;3.17;;
18568;SDS011;14780;48.316;-1.050;2023-01-30T01:06:52;4.30;;;3.25;;
18568;SDS011;14780;48.316;-1.050;2023-01-30T01:09:37;4.57;;;3.20;;
18568;SDS011;14780;48.316;-1.050;2023-01-30T01:12:22;4.80;;;3.08;;
18568;SDS011;14780;48.316;-1.050;2023-01-30T01:15:07;4.03;;;3.00;;
18568;SDS011;14780;48.316;-1.050;2023-01-30T01:17:52;3.58;;;2.80;;
18568;SDS011;14780;48.316;-1.050;2023-01-30T01:20:38;3.85;;;2.88;;
18568;SDS011;14780;48.316;-1.050;2023-01-30T01:23:22;4.38;;;3.05;;
18568;SDS011;14780;48.316;-1.050;2023-01-30T01:26:07;3.53;;;2.63;;
18568;SDS011;14780;48.316;-1.050;2023-01-30T01:28:55;3.90;;;2.95;;
18568;SDS011;14780;48.316;-1.050;2023-01-30T01:31:41;3.97;;;2.70;;
18568;SDS011;14780;48.316;-1.050;2023-01-30T01:34:26;4.32;;;3.10;;
18568;SDS011;14780;48.316;-1.050;2023-01-30T01:37:11;3.65;;;2.83;;
18568;SDS011;14780;48.316;-1.050;2023-01-30T01:39:56;4.53;;;2.80;;
18568;SDS011;14780;48.316;-1.050;2023-01-30T01:42:59;4.72;;;2.70;;
18568;SDS011;14780;48.316;-1.050;2023-01-30T01:45:44;4.25;;;2.92;;
18568;SDS011;14780;48.316;-1.050;2023-01-30T01:51:29;3.65;;;2.60;;
18568;SDS011;14780;48.316;-1.050;2023-01-30T01:54:20;3.55;;;2.53;;
18568;SDS011;14780;48.316;-1.050;2023-01-30T01:57:17;3.78;;;2.70;;
18568;SDS011;14780;48.316;-1.050;2023-01-30T02:00:11;3.15;;;2.60;;
18568;SDS011;14780;48.316;-1.050;2023-01-30T02:03:03;3.40;;;2.55;;
18568;SDS011;14780;48.316;-1.050;2023-01-30T02:05:52;3.88;;;2.72;;
18568;SDS011;14780;48.316;-1.050;2023-01-30T02:08:51;3.50;;;2.60;;
18568;SDS011;14780;48.316;-1.050;2023-01-30T02:11:45;3.80;;;2.40;;
18568;SDS011;14780;48.316;-1.050;2023-01-30T02:14:35;3.38;;;2.63;;
18568;SDS011;14780;48.316;-1.050;2023-01-30T02:17:21;3.97;;;2.75;;
18568;SDS011;14780;48.316;-1.050;2023-01-30T02:41:59;4.40;;;2.35;;
18568;SDS011;14780;48.316;-1.050;2023-01-30T02:48:05;2.95;;;2.30;;
18568;SDS011;14780;48.316;-1.050;2023-01-30T02:50:56;3.42;;;2.53;;
18568;SDS011;14780;48.316;-1.050;2023-01-30T02:53:46;3.78;;;2.30;;
18568;SDS011;14780;48.316;-1.050;2023-01-30T02:56:46;3.58;;;2.40;;
18568;SDS011;14780;48.316;-1.050;2023-01-30T02:59:36;3.40;;;2.40;;
18568;SDS011;14780;48.316;-1.050;2023-01-30T03:08:57;3.05;;;2.33;;
18568;SDS011;14780;48.316;-1.050;2023-01-30T03:14:50;3.70;;;2.30;;
18568;SDS011;14780;48.316;-1.050;2023-01-30T03:17:44;3.42;;;2.50;;
18568;SDS011;14780;48.316;-1.050;2023-01-30T03:20:30;3.30;;;2.40;;
18568;SDS011;14780;48.316;-1.050;2023-01-30T03:23:20;3.63;;;2.47;;
18568;SDS011;14780;48.316;-1.050;2023-01-30T03:26:06;3.33;;;2.35;;
18568;SDS011;14780;48.316;-1.050;2023-01-30T03:28:55;3.55;;;2.13;;
18568;SDS011;14780;48.316;-1.050;2023-01-30T03:31:40;2.88;;;2.30;;
18568;SDS011;14780;48.316;-1.050;2023-01-30T03:34:25;2.28;;;1.95;;
18568;SDS011;14780;48.316;-1.050;2023-01-30T03:37:10;2.22;;;1.92;;
18568;SDS011;14780;48.316;-1.050;2023-01-30T03:39:54;3.40;;;2.35;;
18568;SDS011;14780;48.316;-1.050;2023-01-30T03:42:40;2.85;;;2.20;;
18568;SDS011;14780;48.316;-1.050;2023-01-30T03:45:25;3.05;;;2.20;;
18568;SDS011;14780;48.316;-1.050;2023-01-30T03:48:10;3.45;;;2.20;;
18568;SDS011;14780;48.316;-1.050;2023-01-30T03:50:54;3.42;;;2.38;;
18568;SDS011;14780;48.316;-1.050;2023-01-30T03:53:39;3.45;;;2.25;;
18568;SDS011;14780;48.316;-1.050;2023-01-30T03:56:24;2.60;;;2.20;;
18568;SDS011;14780;48.316;-1.050;2023-01-30T03:59:09;2.80;;;2.20;;
18568;SDS011;14780;48.316;-1.050;2023-01-30T04:01:54;2.83;;;2.08;;
18568;SDS011;14780;48.316;-1.050;2023-01-30T04:04:40;2.50;;;1.90;;
18568;SDS011;14780;48.316;-1.050;2023-01-30T04:07:27;2.85;;;1.95;;
18568;SDS011;14780;48.316;-1.050;2023-01-30T04:10:12;3.30;;;2.10;;
18568;SDS011;14780;48.316;-1.050;2023-01-30T04:12:58;2.13;;;1.92;;
18568;SDS011;14780;48.316;-1.050;2023-01-30T04:15:43;3.92;;;2.15;;
18568;SDS011;14780;48.316;-1.050;2023-01-30T04:18:27;1.85;;;1.67;;
18568;SDS011;14780;48.316;-1.050;2023-01-30T04:21:12;2.35;;;1.92;;
18568;SDS011;14780;48.316;-1.050;2023-01-30T04:23:58;2.50;;;2.08;;
18568;SDS011;14780;48.316;-1.050;2023-01-30T04:26:43;2.63;;;1.80;;
18568;SDS011;14780;48.316;-1.050;2023-01-30T04:29:27;3.03;;;2.00;;
18568;SDS011;14780;48.316;-1.050;2023-01-30T04:32:12;1.83;;;1.70;;
18568;SDS011;14780;48.316;-1.050;2023-01-30T04:34:56;2.92;;;1.98;;
18568;SDS011;14780;48.316;-1.050;2023-01-30T04:37:41;1.75;;;1.65;;
18568;SDS011;14780;48.316;-1.050;2023-01-30T04:40:26;2.08;;;1.80;;
18568;SDS011;14780;48.316;-1.050;2023-01-30T04:43:11;2.78;;;2.00;;
18568;SDS011;14780;48.316;-1.050;2023-01-30T04:45:56;2.17;;;1.73;;
18568;SDS011;14780;48.316;-1.050;2023-01-30T04:48:40;3.42;;;2.10;;
18568;SDS011;14780;48.316;-1.050;2023-01-30T04:51:25;2.10;;;1.90;;
18568;SDS011;14780;48.316;-1.050;2023-01-30T04:54:10;2.63;;;1.88;;
18568;SDS011;14780;48.316;-1.050;2023-01-30T04:56:55;2.13;;;1.90;;
18568;SDS011;14780;48.316;-1.050;2023-01-30T04:59:40;2.13;;;1.83;;
18568;SDS011;14780;48.316;-1.050;2023-01-30T05:02:24;2.22;;;1.90;;
18568;SDS011;14780;48.316;-1.050;2023-01-30T05:05:09;2.10;;;1.70;;
18568;SDS011;14780;48.316;-1.050;2023-01-30T05:07:53;2.30;;;1.80;;
18568;SDS011;14780;48.316;-1.050;2023-01-30T05:10:38;2.00;;;1.80;;
18568;SDS011;14780;48.316;-1.050;2023-01-30T05:13:22;2.33;;;1.63;;
18568;SDS011;14780;48.316;-1.050;2023-01-30T05:16:07;2.67;;;1.95;;
18568;SDS011;14780;48.316;-1.050;2023-01-30T05:18:52;2.20;;;1.67;;
18568;SDS011;14780;48.316;-1.050;2023-01-30T05:21:37;2.00;;;1.70;;
18568;SDS011;14780;48.316;-1.050;2023-01-30T05:24:21;1.55;;;1.45;;
18568;SDS011;14780;48.316;-1.050;2023-01-30T05:27:06;1.60;;;1.50;;
18568;SDS011;14780;48.316;-1.050;2023-01-30T05:29:51;1.73;;;1.63;;
18568;SDS011;14780;48.316;-1.050;2023-01-30T05:32:35;1.80;;;1.70;;
18568;SDS011;14780;48.316;-1.050;2023-01-30T05:35:20;1.70;;;1.60;;
18568;SDS011;14780;48.316;-1.050;2023-01-30T05:38:04;1.70;;;1.60;;
18568;SDS011;14780;48.316;-1.050;2023-01-30T05:41:03;1.70;;;1.55;;
18568;SDS011;14780;48.316;-1.050;2023-01-30T05:43:49;1.60;;;1.50;;
18568;SDS011;14780;48.316;-1.050;2023-01-30T05:46:34;1.58;;;1.48;;
18568;SDS011;14780;48.316;-1.050;2023-01-30T05:49:18;1.67;;;1.58;;
18568;SDS011;14780;48.316;-1.050;2023-01-30T05:52:03;2.00;;;1.50;;
18568;SDS011;14780;48.316;-1.050;2023-01-30T05:54:48;1.45;;;1.35;;
18568;SDS011;14780;48.316;-1.050;2023-01-30T05:57:33;1.92;;;1.60;;
18568;SDS011;14780;48.316;-1.050;2023-01-30T06:00:17;1.50;;;1.40;;
18568;SDS011;14780;48.316;-1.050;2023-01-30T06:03:03;2.20;;;1.75;;
18568;SDS011;14780;48.316;-1.050;2023-01-30T06:05:47;1.90;;;1.70;;
18568;SDS011;14780;48.316;-1.050;2023-01-30T06:08:32;1.80;;;1.67;;
18568;SDS011;14780;48.316;-1.050;2023-01-30T06:11:17;1.42;;;1.33;;
18568;SDS011;14780;48.316;-1.050;2023-01-30T06:14:02;1.60;;;1.50;;
18568;SDS011;14780;48.316;-1.050;2023-01-30T06:16:47;1.63;;;1.50;;
18568;SDS011;14780;48.316;-1.050;2023-01-30T06:19:32;1.58;;;1.48;;
18568;SDS011;14780;48.316;-1.050;2023-01-30T06:22:17;1.42;;;1.30;;
18568;SDS011;14780;48.316;-1.050;2023-01-30T06:25:01;1.60;;;1.50;;
18568;SDS011;14780;48.316;-1.050;2023-01-30T06:27:46;1.33;;;1.23;;
18568;SDS011;14780;48.316;-1.050;2023-01-30T06:30:31;1.42;;;1.33;;
18568;SDS011;14780;48.316;-1.050;2023-01-30T06:33:15;1.65;;;1.55;;
18568;SDS011;14780;48.316;-1.050;2023-01-30T06:36:00;1.25;;;1.17;;
18568;SDS011;14780;48.316;-1.050;2023-01-30T06:38:45;1.55;;;1.40;;
18568;SDS011;14780;48.316;-1.050;2023-01-30T06:41:31;2.53;;;1.50;;
18568;SDS011;14780;48.316;-1.050;2023-01-30T06:44:16;2.58;;;1.60;;
18568;SDS011;14780;48.316;-1.050;2023-01-30T06:47:01;1.48;;;1.38;;
18568;SDS011;14780;48.316;-1.050;2023-01-30T06:49:46;2.00;;;1.55;;
18568;SDS011;14780;48.316;-1.050;2023-01-30T06:52:31;1.63;;;1.40;;
18568;SDS011;14780;48.316;-1.050;2023-01-30T06:55:17;1.60;;;1.35;;
18568;SDS011;14780;48.316;-1.050;2023-01-30T06:58:07;2.33;;;1.42;;
18568;SDS011;14780;48.316;-1.050;2023-01-30T07:00:54;2.05;;;1.50;;
18568;SDS011;14780;48.316;-1.050;2023-01-30T07:03:39;4.88;;;1.50;;
18568;SDS011;14780;48.316;-1.050;2023-01-30T07:06:25;3.47;;;1.60;;
18568;SDS011;14780;48.316;-1.050;2023-01-30T07:09:10;1.45;;;1.35;;
18568;SDS011;14780;48.316;-1.050;2023-01-30T07:11:54;4.22;;;1.50;;
18568;SDS011;14780;48.316;-1.050;2023-01-30T07:14:39;4.05;;;1.85;;
18568;SDS011;14780;48.316;-1.050;2023-01-30T07:17:23;3.95;;;1.60;;
18568;SDS011;14780;48.316;-1.050;2023-01-30T07:20:08;1.48;;;1.30;;
18568;SDS011;14780;48.316;-1.050;2023-01-30T07:22:54;2.45;;;1.60;;
18568;SDS011;14780;48.316;-1.050;2023-01-30T07:25:39;1.27;;;1.23;;
18568;SDS011;14780;48.316;-1.050;2023-01-30T07:28:24;1.48;;;1.38;;
18568;SDS011;14780;48.316;-1.050;2023-01-30T07:31:09;3.33;;;1.65;;
18568;SDS011;14780;48.316;-1.050;2023-01-30T07:33:54;2.08;;;1.50;;
18568;SDS011;14780;48.316;-1.050;2023-01-30T07:36:38;2.58;;;1.40;;
18568;SDS011;14780;48.316;-1.050;2023-01-30T07:39:23;1.83;;;1.70;;
18568;SDS011;14780;48.316;-1.050;2023-01-30T07:42:07;2.92;;;1.63;;
18568;SDS011;14780;48.316;-1.050;2023-01-30T07:44:52;1.67;;;1.30;;
18568;SDS011;14780;48.316;-1.050;2023-01-30T07:47:36;1.77;;;1.52;;
18568;SDS011;14780;48.316;-1.050;2023-01-30T07:50:21;2.40;;;1.58;;
18568;SDS011;14780;48.316;-1.050;2023-01-30T07:53:06;3.95;;;1.67;;
18568;SDS011;14780;48.316;-1.050;2023-01-30T07:55:53;2.63;;;1.25;;
18568;SDS011;14780;48.316;-1.050;2023-01-30T07:58:38;2.17;;;1.50;;
18568;SDS011;14780;48.316;-1.050;2023-01-30T08:01:23;1.27;;;1.17;;
18568;SDS011;14780;48.316;-1.050;2023-01-30T08:04:07;4.63;;;1.40;;
18568;SDS011;14780;48.316;-1.050;2023-01-30T08:06:52;2.97;;;1.48;;
18568;SDS011;14780;48.316;-1.050;2023-01-30T08:09:36;2.28;;;1.60;;
18568;SDS011;14780;48.316;-1.050;2023-01-30T08:12:21;2.85;;;1.35;;
18568;SDS011;14780;48.316;-1.050;2023-01-30T08:15:06;3.85;;;1.50;;
18568;SDS011;14780;48.316;-1.050;2023-01-30T08:17:53;1.45;;;1.30;;
18568;SDS011;14780;48.316;-1.050;2023-01-30T08:20:38;2.38;;;1.52;;
18568;SDS011;14780;48.316;-1.050;2023-01-30T08:23:25;3.58;;;1.45;;
18568;SDS011;14780;48.316;-1.050;2023-01-30T08:26:10;1.35;;;1.23;;
18568;SDS011;14780;48.316;-1.050;2023-01-30T08:28:55;2.95;;;1.35;;
18568;SDS011;14780;48.316;-1.050;2023-01-30T08:31:39;5.18;;;1.30;;
18568;SDS011;14780;48.316;-1.050;2023-01-30T08:34:24;2.33;;;1.50;;
18568;SDS011;14780;48.316;-1.050;2023-01-30T08:37:09;3.22;;;1.60;;
18568;SDS011;14780;48.316;-1.050;2023-01-30T08:39:54;1.55;;;1.45;;
18568;SDS011;14780;48.316;-1.050;2023-01-30T08:42:38;4.65;;;1.88;;
18568;SDS011;14780;48.316;-1.050;2023-01-30T08:45:26;1.60;;;1.35;;
18568;SDS011;14780;48.316;-1.050;2023-01-30T08:48:11;1.42;;;1.33;;
18568;SDS011;14780;48.316;-1.050;2023-01-30T08:50:56;2.10;;;1.75;;
18568;SDS011;14780;48.316;-1.050;2023-01-30T08:53:41;2.63;;;1.77;;
18568;SDS011;14780;48.316;-1.050;2023-01-30T08:56:26;2.88;;;1.70;;
18568;SDS011;14780;48.316;-1.050;2023-01-30T08:59:10;1.95;;;1.60;;
18568;SDS011;14780;48.316;-1.050;2023-01-30T09:01:55;3.30;;;1.50;;
18568;SDS011;14780;48.316;-1.050;2023-01-30T09:04:40;3.30;;;1.67;;
18568;SDS011;14780;48.316;-1.050;2023-01-30T09:07:25;1.42;;;1.33;;
18568;SDS011;14780;48.316;-1.050;2023-01-30T09:10:11;3.63;;;1.60;;
18568;SDS011;14780;48.316;-1.050;2023-01-30T09:12:56;1.70;;;1.40;;
18568;SDS011;14780;48.316;-1.050;2023-01-30T09:15:41;2.22;;;1.45;;
18568;SDS011;14780;48.316;-1.050;2023-01-30T09:18:26;1.92;;;1.67;;
18568;SDS011;14780;48.316;-1.050;2023-01-30T09:21:11;4.18;;;1.65;;
18568;SDS011;14780;48.316;-1.050;2023-01-30T09:23:57;1.50;;;1.40;;
18568;SDS011;14780;48.316;-1.050;2023-01-30T09:26:41;3.03;;;1.80;;
18568;SDS011;14780;48.316;-1.050;2023-01-30T09:29:27;1.58;;;1.48;;
18568;SDS011;14780;48.316;-1.050;2023-01-30T09:32:12;1.90;;;1.70;;
18568;SDS011;14780;48.316;-1.050;2023-01-30T09:34:58;2.92;;;1.60;;
18568;SDS011;14780;48.316;-1.050;2023-01-30T09:37:47;2.28;;;1.75;;
18568;SDS011;14780;48.316;-1.050;2023-01-30T09:40:33;2.03;;;1.63;;
18568;SDS011;14780;48.316;-1.050;2023-01-30T09:55:32;6.60;;;2.25;;
18568;SDS011;14780;48.316;-1.050;2023-01-30T09:58:22;2.90;;;1.83;;
18568;SDS011;14780;48.316;-1.050;2023-01-30T10:01:12;2.45;;;2.08;;
18568;SDS011;14780;48.316;-1.050;2023-01-30T10:04:26;2.42;;;1.73;;
18568;SDS011;14780;48.316;-1.050;2023-01-30T10:07:22;2.00;;;1.80;;
18568;SDS011;14780;48.316;-1.050;2023-01-30T10:10:20;2.47;;;1.58;;
18568;SDS011;14780;48.316;-1.050;2023-01-30T10:19:15;2.33;;;1.73;;
18568;SDS011;14780;48.316;-1.050;2023-01-30T10:25:49;3.72;;;1.95;;
18568;SDS011;14780;48.316;-1.050;2023-01-30T10:28:39;2.28;;;1.90;;
18568;SDS011;14780;48.316;-1.050;2023-01-30T10:31:45;3.88;;;1.88;;
18568;SDS011;14780;48.316;-1.050;2023-01-30T10:34:35;2.40;;;2.03;;
18568;SDS011;14780;48.316;-1.050;2023-01-30T10:37:26;2.72;;;1.75;;
18568;SDS011;14780;48.316;-1.050;2023-01-30T10:40:27;2.47;;;1.92;;
18568;SDS011;14780;48.316;-1.050;2023-01-30T10:49:50;2.30;;;1.80;;
18568;SDS011;14780;48.316;-1.050;2023-01-30T11:05:21;2.50;;;2.17;;
18568;SDS011;14780;48.316;-1.050;2023-01-30T11:08:13;2.55;;;2.15;;
18568;SDS011;14780;48.316;-1.050;2023-01-30T11:14:14;3.40;;;2.55;;
18568;SDS011;14780;48.316;-1.050;2023-01-30T11:16:59;3.55;;;2.60;;
18568;SDS011;14780;48.316;-1.050;2023-01-30T11:19:52;3.33;;;2.28;;
18568;SDS011;14780;48.316;-1.050;2023-01-30T11:22:46;4.30;;;2.60;;
18568;SDS011;14780;48.316;-1.050;2023-01-30T11:25:46;4.60;;;2.50;;
18568;SDS011;14780;48.316;-1.050;2023-01-30T11:28:41;3.67;;;2.65;;
18568;SDS011;14780;48.316;-1.050;2023-01-30T11:31:29;2.60;;;2.15;;
18568;SDS011;14780;48.316;-1.050;2023-01-30T11:34:15;2.70;;;2.10;;
18568;SDS011;14780;48.316;-1.050;2023-01-30T11:37:12;3.25;;;2.58;;
18568;SDS011;14780;48.316;-1.050;2023-01-30T11:40:06;2.92;;;2.20;;
18568;SDS011;14780;48.316;-1.050;2023-01-30T11:43:01;4.00;;;2.30;;
18568;SDS011;14780;48.316;-1.050;2023-01-30T11:45:48;3.55;;;2.40;;
18568;SDS011;14780;48.316;-1.050;2023-01-30T11:48:34;3.72;;;2.28;;
18568;SDS011;14780;48.316;-1.050;2023-01-30T11:51:32;8.52;;;2.50;;
18568;SDS011;14780;48.316;-1.050;2023-01-30T11:54:20;4.97;;;2.47;;
18568;SDS011;14780;48.316;-1.050;2023-01-30T11:57:13;4.50;;;3.00;;
18568;SDS011;14780;48.316;-1.050;2023-01-30T12:00:00;4.88;;;3.30;;
18568;SDS011;14780;48.316;-1.050;2023-01-30T12:02:46;4.72;;;3.28;;
18568;SDS011;14780;48.316;-1.050;2023-01-30T12:05:33;5.32;;;2.88;;
18568;SDS011;14780;48.316;-1.050;2023-01-30T12:08:26;4.80;;;2.60;;
18568;SDS011;14780;48.316;-1.050;2023-01-30T12:11:41;5.45;;;2.83;;
18568;SDS011;14780;48.316;-1.050;2023-01-30T12:17:26;4.07;;;2.65;;
18568;SDS011;14780;48.316;-1.050;2023-01-30T12:27:00;3.25;;;2.28;;
18568;SDS011;14780;48.316;-1.050;2023-01-30T12:32:38;3.00;;;2.13;;
18568;SDS011;14780;48.316;-1.050;2023-01-30T12:35:24;5.10;;;2.45;;
18568;SDS011;14780;48.316;-1.050;2023-01-30T12:38:26;2.78;;;1.98;;
18568;SDS011;14780;48.316;-1.050;2023-01-30T12:41:34;4.13;;;2.28;;
18568;SDS011;14780;48.316;-1.050;2023-01-30T12:53:39;2.80;;;2.13;;
18568;SDS011;14780;48.316;-1.050;2023-01-30T13:03:03;2.50;;;2.00;;
18568;SDS011;14780;48.316;-1.050;2023-01-30T13:22:14;3.03;;;1.83;;
18568;SDS011;14780;48.316;-1.050;2023-01-30T13:27:57;2.30;;;1.90;;
18568;SDS011;14780;48.316;-1.050;2023-01-30T13:30:48;3.50;;;1.88;;
18568;SDS011;14780;48.316;-1.050;2023-01-30T13:33:37;2.90;;;1.85;;
18568;SDS011;14780;48.316;-1.050;2023-01-30T13:36:32;2.78;;;1.83;;
18568;SDS011;14780;48.316;-1.050;2023-01-30T13:39:38;2.13;;;1.60;;
18568;SDS011;14780;48.316;-1.050;2023-01-30T13:45:40;3.17;;;1.88;;
18568;SDS011;14780;48.316;-1.050;2023-01-30T13:48:44;2.70;;;1.85;;
18568;SDS011;14780;48.316;-1.050;2023-01-30T13:52:08;2.35;;;1.73;;
18568;SDS011;14780;48.316;-1.050;2023-01-30T13:54:57;1.77;;;1.50;;
18568;SDS011;14780;48.316;-1.050;2023-01-30T13:58:09;2.08;;;1.67;;
18568;SDS011;14780;48.316;-1.050;2023-01-30T14:01:00;5.55;;;1.80;;
18568;SDS011;14780;48.316;-1.050;2023-01-30T14:03:45;2.17;;;1.80;;
18568;SDS011;14780;48.316;-1.050;2023-01-30T14:09:23;4.63;;;1.90;;
18568;SDS011;14780;48.316;-1.050;2023-01-30T14:12:16;3.58;;;1.80;;
18568;SDS011;14780;48.316;-1.050;2023-01-30T14:18:05;2.25;;;1.65;;
18568;SDS011;14780;48.316;-1.050;2023-01-30T14:24:03;2.30;;;1.63;;
18568;SDS011;14780;48.316;-1.050;2023-01-30T14:32:32;2.58;;;1.90;;
18568;SDS011;14780;48.316;-1.050;2023-01-30T14:35:34;2.90;;;2.00;;
18568;SDS011;14780;48.316;-1.050;2023-01-30T14:38:20;2.22;;;1.80;;
18568;SDS011;14780;48.316;-1.050;2023-01-30T14:43:50;3.13;;;2.20;;
18568;SDS011;14780;48.316;-1.050;2023-01-30T14:46:40;3.35;;;2.20;;
18568;SDS011;14780;48.316;-1.050;2023-01-30T14:49:26;2.88;;;2.10;;
18568;SDS011;14780;48.316;-1.050;2023-01-30T14:55:33;5.63;;;2.60;;
18568;SDS011;14780;48.316;-1.050;2023-01-30T14:58:18;3.50;;;2.28;;
18568;SDS011;14780;48.316;-1.050;2023-01-30T15:01:03;5.57;;;2.80;;
18568;SDS011;14780;48.316;-1.050;2023-01-30T15:03:48;5.28;;;2.50;;
18568;SDS011;14780;48.316;-1.050;2023-01-30T15:06:34;5.55;;;2.50;;
18568;SDS011;14780;48.316;-1.050;2023-01-30T15:09:20;5.75;;;2.60;;
18568;SDS011;14780;48.316;-1.050;2023-01-30T15:15:25;4.90;;;2.60;;
18568;SDS011;14780;48.316;-1.050;2023-01-30T15:18:29;5.22;;;2.72;;
18568;SDS011;14780;48.316;-1.050;2023-01-30T15:27:21;11.73;;;3.03;;
18568;SDS011;14780;48.316;-1.050;2023-01-30T15:33:46;8.55;;;3.15;;
18568;SDS011;14780;48.316;-1.050;2023-01-30T15:36:33;5.60;;;2.95;;
18568;SDS011;14780;48.316;-1.050;2023-01-30T15:39:19;5.90;;;2.75;;
18568;SDS011;14780;48.316;-1.050;2023-01-30T15:42:06;5.13;;;2.55;;
18568;SDS011;14780;48.316;-1.050;2023-01-30T15:48:00;4.38;;;2.20;;
18568;SDS011;14780;48.316;-1.050;2023-01-30T15:50:58;3.70;;;2.38;;
18568;SDS011;14780;48.316;-1.050;2023-01-30T15:53:44;5.70;;;2.45;;
18568;SDS011;14780;48.316;-1.050;2023-01-30T15:56:30;3.03;;;2.20;;
18568;SDS011;14780;48.316;-1.050;2023-01-30T15:59:34;3.90;;;2.47;;
18568;SDS011;14780;48.316;-1.050;2023-01-30T16:02:32;3.78;;;2.60;;
18568;SDS011;14780;48.316;-1.050;2023-01-30T16:05:20;5.60;;;2.40;;
18568;SDS011;14780;48.316;-1.050;2023-01-30T16:08:16;4.32;;;2.20;;
18568;SDS011;14780;48.316;-1.050;2023-01-30T16:11:04;4.90;;;2.30;;
18568;SDS011;14780;48.316;-1.050;2023-01-30T16:13:48;5.45;;;2.50;;
18568;SDS011;14780;48.316;-1.050;2023-01-30T16:16:33;5.47;;;2.83;;
18568;SDS011;14780;48.316;-1.050;2023-01-30T16:19:21;6.25;;;2.15;;
18568;SDS011;14780;48.316;-1.050;2023-01-30T16:22:17;6.30;;;2.33;;
18568;SDS011;14780;48.316;-1.050;2023-01-30T16:25:04;4.80;;;2.40;;
18568;SDS011;14780;48.316;-1.050;2023-01-30T16:27:57;4.63;;;2.17;;
18568;SDS011;14780;48.316;-1.050;2023-01-30T16:30:43;3.75;;;2.25;;
18568;SDS011;14780;48.316;-1.050;2023-01-30T16:33:28;3.72;;;2.20;;
18568;SDS011;14780;48.316;-1.050;2023-01-30T16:39:03;3.75;;;2.30;;
18568;SDS011;14780;48.316;-1.050;2023-01-30T16:42:23;3.53;;;2.08;;
18568;SDS011;14780;48.316;-1.050;2023-01-30T16:54:00;3.55;;;1.98;;
18568;SDS011;14780;48.316;-1.050;2023-01-30T16:56:48;4.32;;;2.10;;
18568;SDS011;14780;48.316;-1.050;2023-01-30T16:59:37;2.58;;;1.70;;
18568;SDS011;14780;48.316;-1.050;2023-01-30T17:02:23;4.22;;;2.22;;
18568;SDS011;14780;48.316;-1.050;2023-01-30T17:05:38;5.40;;;2.03;;
18568;SDS011;14780;48.316;-1.050;2023-01-30T17:14:26;3.80;;;2.17;;
18568;SDS011;14780;48.316;-1.050;2023-01-30T17:17:14;3.90;;;1.77;;
18568;SDS011;14780;48.316;-1.050;2023-01-30T17:19:58;3.38;;;1.92;;
18568;SDS011;14780;48.316;-1.050;2023-01-30T17:22:44;6.25;;;2.00;;
18568;SDS011;14780;48.316;-1.050;2023-01-30T17:25:37;3.53;;;2.03;;
18568;SDS011;14780;48.316;-1.050;2023-01-30T17:28:24;3.95;;;2.10;;
18568;SDS011;14780;48.316;-1.050;2023-01-30T17:31:14;3.75;;;2.10;;
18568;SDS011;14780;48.316;-1.050;2023-01-30T17:33:59;3.22;;;1.92;;
18568;SDS011;14780;48.316;-1.050;2023-01-30T17:36:45;8.23;;;2.28;;
18568;SDS011;14780;48.316;-1.050;2023-01-30T17:39:30;3.10;;;1.90;;
18568;SDS011;14780;48.316;-1.050;2023-01-30T17:42:15;3.33;;;1.90;;
18568;SDS011;14780;48.316;-1.050;2023-01-30T17:45:03;4.47;;;2.30;;
18568;SDS011;14780;48.316;-1.050;2023-01-30T17:47:48;3.13;;;1.77;;
18568;SDS011;14780;48.316;-1.050;2023-01-30T17:50:33;3.05;;;1.90;;
18568;SDS011;14780;48.316;-1.050;2023-01-30T17:53:19;3.53;;;1.90;;
18568;SDS011;14780;48.316;-1.050;2023-01-30T17:56:03;5.75;;;2.55;;
18568;SDS011;14780;48.316;-1.050;2023-01-30T17:58:56;3.03;;;1.80;;
18568;SDS011;14780;48.316;-1.050;2023-01-30T18:01:42;2.65;;;1.65;;
18568;SDS011;14780;48.316;-1.050;2023-01-30T18:04:29;2.83;;;1.70;;
18568;SDS011;14780;48.316;-1.050;2023-01-30T18:07:14;7.32;;;2.10;;
18568;SDS011;14780;48.316;-1.050;2023-01-30T18:09:58;7.00;;;1.92;;
18568;SDS011;14780;48.316;-1.050;2023-01-30T18:12:43;4.13;;;2.10;;
18568;SDS011;14780;48.316;-1.050;2023-01-30T18:15:28;2.92;;;2.00;;
18568;SDS011;14780;48.316;-1.050;2023-01-30T18:18:13;4.65;;;2.08;;
18568;SDS011;14780;48.316;-1.050;2023-01-30T18:21:00;4.28;;;2.00;;
18568;SDS011;14780;48.316;-1.050;2023-01-30T18:23:44;6.22;;;2.53;;
18568;SDS011;14780;48.316;-1.050;2023-01-30T18:26:29;7.43;;;2.83;;
18568;SDS011;14780;48.316;-1.050;2023-01-30T18:29:14;6.10;;;2.22;;
18568;SDS011;14780;48.316;-1.050;2023-01-30T18:31:59;6.80;;;2.40;;
18568;SDS011;14780;48.316;-1.050;2023-01-30T18:34:48;7.57;;;2.47;;
18568;SDS011;14780;48.316;-1.050;2023-01-30T18:37:32;4.18;;;2.45;;
18568;SDS011;14780;48.316;-1.050;2023-01-30T18:40:17;9.50;;;2.80;;
18568;SDS011;14780;48.316;-1.050;2023-01-30T18:43:03;8.13;;;2.70;;
18568;SDS011;14780;48.316;-1.050;2023-01-30T18:45:48;6.03;;;2.90;;
18568;SDS011;14780;48.316;-1.050;2023-01-30T18:48:32;4.93;;;2.72;;
18568;SDS011;14780;48.316;-1.050;2023-01-30T18:51:19;7.47;;;3.15;;
18568;SDS011;14780;48.316;-1.050;2023-01-30T18:54:06;11.50;;;3.55;;
18568;SDS011;14780;48.316;-1.050;2023-01-30T18:56:51;11.20;;;3.78;;
18568;SDS011;14780;48.316;-1.050;2023-01-30T18:59:35;9.73;;;3.80;;
18568;SDS011;14780;48.316;-1.050;2023-01-30T19:02:22;11.50;;;3.72;;
18568;SDS011;14780;48.316;-1.050;2023-01-30T19:05:07;10.98;;;3.85;;
18568;SDS011;14780;48.316;-1.050;2023-01-30T19:07:52;9.20;;;3.78;;
18568;SDS011;14780;48.316;-1.050;2023-01-30T19:10:38;10.10;;;3.40;;
18568;SDS011;14780;48.316;-1.050;2023-01-30T19:13:22;11.52;;;3.08;;
18568;SDS011;14780;48.316;-1.050;2023-01-30T19:16:16;7.78;;;3.28;;
18568;SDS011;14780;48.316;-1.050;2023-01-30T19:19:02;8.25;;;3.33;;
18568;SDS011;14780;48.316;-1.050;2023-01-30T19:21:48;9.88;;;3.67;;
18568;SDS011;14780;48.316;-1.050;2023-01-30T19:24:34;7.38;;;3.28;;
18568;SDS011;14780;48.316;-1.050;2023-01-30T19:27:19;10.40;;;3.72;;
18568;SDS011;14780;48.316;-1.050;2023-01-30T19:30:04;6.07;;;3.15;;
18568;SDS011;14780;48.316;-1.050;2023-01-30T19:32:50;9.10;;;3.35;;
18568;SDS011;14780;48.316;-1.050;2023-01-30T19:35:36;6.07;;;2.97;;
18568;SDS011;14780;48.316;-1.050;2023-01-30T19:38:25;7.35;;;3.20;;
18568;SDS011;14780;48.316;-1.050;2023-01-30T19:41:11;8.02;;;3.03;;